createdAt,value
2018-11-06T00:01:29.638Z,100582.08
2018-11-06T00:04:02.901Z,100574.07
2018-11-06T00:06:31.653Z,100592.95
2018-11-06T00:09:00.664Z,100581.83
2018-11-06T00:11:28.996Z,100584.18
2018-11-06T00:13:57.343Z,100586.23
2018-11-06T00:16:25.680Z,100588.97
2018-11-06T00:18:54.026Z,100584.64
2018-11-06T00:21:22.368Z,100582.09
2018-11-06T00:23:50.730Z,100579.50
2018-11-06T00:26:19.098Z,100584.62
2018-11-06T00:28:47.436Z,100580.73
2018-11-06T00:31:15.751Z,100582.13
2018-11-06T00:33:44.092Z,100585.77
2018-11-06T00:36:12.440Z,100584.56
2018-11-06T00:38:40.797Z,100584.73
2018-11-06T00:41:09.147Z,100579.84
2018-11-06T00:43:37.508Z,100573.66
2018-11-06T00:46:05.952Z,100575.48
2018-11-06T00:48:34.299Z,100572.70
2018-11-06T00:51:02.652Z,100579.03
2018-11-06T00:53:30.990Z,100578.16
2018-11-06T00:55:59.334Z,100572.84
2018-11-06T00:58:27.713Z,100571.93
2018-11-06T01:00:56.061Z,100575.09
2018-11-06T01:03:29.832Z,100576.82
2018-11-06T01:05:58.176Z,100570.11
2018-11-06T01:08:26.521Z,100579.98
2018-11-06T01:10:54.833Z,100580.84
2018-11-06T01:13:23.253Z,100574.53
2018-11-06T01:15:51.596Z,100576.27
2018-11-06T01:18:19.930Z,100579.89
2018-11-06T01:20:48.271Z,100575.09
2018-11-06T01:23:17.429Z,100573.33
2018-11-06T01:25:45.757Z,100564.97
2018-11-06T01:28:14.125Z,100574.28
2018-11-06T01:30:42.481Z,100581.94
2018-11-06T01:33:10.824Z,100578.39
2018-11-06T01:35:39.178Z,100577.58
2018-11-06T01:38:07.856Z,100582.08
2018-11-06T01:40:36.203Z,100579.31
2018-11-06T01:43:04.584Z,100575.84
2018-11-06T01:45:33.437Z,100579.05
2018-11-06T01:48:01.785Z,100576.84
2018-11-06T01:50:30.129Z,100572.04
2018-11-06T01:52:58.482Z,100580.00
2018-11-06T01:55:26.956Z,100571.56
2018-11-06T01:57:55.300Z,100575.25
2018-11-06T02:00:23.640Z,100567.67
2018-11-06T02:02:51.993Z,100569.02
2018-11-06T02:05:20.339Z,100565.22
2018-11-06T02:07:49.807Z,100566.16
2018-11-06T02:10:18.588Z,100566.64
2018-11-06T02:12:47.583Z,100565.35
2018-11-06T02:15:15.935Z,100572.87
2018-11-06T02:17:44.955Z,100577.43
2018-11-06T02:20:14.054Z,100570.94
2018-11-06T02:22:43.360Z,100581.62
2018-11-06T02:25:12.247Z,100571.89
2018-11-06T02:27:40.598Z,100569.30
2018-11-06T02:30:10.856Z,100571.97
2018-11-06T02:32:39.252Z,100574.66
2018-11-06T02:35:07.912Z,100570.69
2018-11-06T02:37:36.493Z,100572.16
2018-11-06T02:40:05.196Z,100576.92
2018-11-06T02:42:33.536Z,100575.66
2018-11-06T02:45:01.881Z,100572.11
2018-11-06T02:47:30.257Z,100577.95
2018-11-06T02:49:58.600Z,100569.95
2018-11-06T02:52:26.944Z,100571.85
2018-11-06T02:54:55.277Z,100577.22
2018-11-06T02:57:23.629Z,100580.82
2018-11-06T02:59:52.007Z,100578.78
2018-11-06T03:02:20.351Z,100588.56
2018-11-06T03:04:48.743Z,100589.81
2018-11-06T03:07:17.063Z,100584.88
2018-11-06T03:09:45.433Z,100585.28
2018-11-06T03:12:13.762Z,100591.59
2018-11-06T03:14:42.097Z,100590.25
2018-11-06T03:17:10.450Z,100588.52
2018-11-06T03:19:38.813Z,100586.09
2018-11-06T03:22:07.160Z,100599.91
2018-11-06T03:24:35.508Z,100590.34
2018-11-06T03:27:03.913Z,100591.33
2018-11-06T03:29:32.212Z,100594.48
2018-11-06T03:32:00.740Z,100600.06
2018-11-06T03:34:29.090Z,100602.87
2018-11-06T03:36:57.420Z,100602.61
2018-11-06T03:39:25.794Z,100603.30
2018-11-06T03:41:54.151Z,100602.89
2018-11-06T03:44:22.501Z,100605.23
2018-11-06T03:46:50.830Z,100605.05
2018-11-06T03:49:19.195Z,100604.51
2018-11-06T03:51:47.568Z,100594.78
2018-11-06T03:54:15.910Z,100601.01
2018-11-06T03:56:44.246Z,100603.37
2018-11-06T03:59:12.593Z,100597.19
2018-11-06T04:01:40.945Z,100612.02
2018-11-06T04:04:09.288Z,100604.45
2018-11-06T04:06:37.613Z,100611.59
2018-11-06T04:09:09.136Z,100617.50
2018-11-06T04:11:37.772Z,100619.83
2018-11-06T04:14:06.679Z,100616.87
2018-11-06T04:16:35.035Z,100614.66
2018-11-06T04:19:03.524Z,100613.87
2018-11-06T04:21:35.184Z,100621.44
2018-11-06T04:24:04.276Z,100612.55
2018-11-06T04:26:32.861Z,100617.47
2018-11-06T04:29:01.441Z,100618.06
2018-11-06T04:31:29.801Z,100613.69
2018-11-06T04:33:58.141Z,100617.36
2018-11-06T04:36:26.485Z,100609.91
2018-11-06T04:38:54.832Z,100615.42
2018-11-06T04:41:23.235Z,100622.12
2018-11-06T04:43:51.941Z,100612.88
2018-11-06T04:46:20.496Z,100614.72
2018-11-06T04:48:49.187Z,100616.61
2018-11-06T04:51:17.795Z,100621.57
2018-11-06T04:53:46.149Z,100616.84
2018-11-06T04:56:14.485Z,100621.30
2018-11-06T04:58:42.827Z,100619.02
2018-11-06T05:01:11.175Z,100627.52
2018-11-06T05:03:44.719Z,100630.67
2018-11-06T05:06:13.066Z,100632.12
2018-11-06T05:08:41.420Z,100633.94
2018-11-06T05:11:09.769Z,100631.73
2018-11-06T05:13:38.268Z,100637.20
2018-11-06T05:16:06.799Z,100635.31
2018-11-06T05:18:35.280Z,100637.59
2018-11-06T05:21:03.773Z,100642.88
2018-11-06T05:23:32.126Z,100640.34
2018-11-06T05:26:00.635Z,100647.05
2018-11-06T05:28:29.220Z,100645.75
2018-11-06T05:30:57.588Z,100654.33
2018-11-06T05:33:26.371Z,100654.33
2018-11-06T05:35:54.704Z,100659.00
2018-11-06T05:38:23.084Z,100654.23
2018-11-06T05:41:02.684Z,100653.33
2018-11-06T05:43:31.099Z,100642.77
2018-11-06T05:45:59.485Z,100650.37
2018-11-06T05:48:27.924Z,100652.25
2018-11-06T05:50:56.863Z,100650.05
2018-11-06T05:53:25.201Z,100648.63
2018-11-06T05:55:53.569Z,100651.58
2018-11-06T05:58:21.952Z,100653.70
2018-11-06T06:00:50.317Z,100653.70
2018-11-06T06:03:18.692Z,100656.85
2018-11-06T06:05:47.015Z,100654.25
2018-11-06T06:08:15.375Z,100654.83
2018-11-06T06:10:43.796Z,100659.42
2018-11-06T06:13:12.153Z,100668.80
2018-11-06T06:15:40.537Z,100672.81
2018-11-06T06:18:08.885Z,100671.87
2018-11-06T06:20:38.202Z,100675.38
2018-11-06T06:23:06.798Z,100668.69
2018-11-06T06:25:35.161Z,100671.76
2018-11-06T06:28:03.525Z,100671.87
2018-11-06T06:30:31.871Z,100673.75
2018-11-06T06:33:00.229Z,100672.41
2018-11-06T06:35:28.597Z,100677.77
2018-11-06T06:37:56.967Z,100682.28
2018-11-06T06:40:25.305Z,100678.27
2018-11-06T06:42:53.664Z,100686.08
2018-11-06T06:45:21.984Z,100685.14
2018-11-06T06:47:50.695Z,100687.93
2018-11-06T06:50:19.964Z,100690.13
2018-11-06T06:52:48.836Z,100690.61
2018-11-06T06:55:17.717Z,100697.26
2018-11-06T06:57:46.943Z,100693.28
2018-11-06T07:00:16.647Z,100700.38
2018-11-06T07:02:45.046Z,100701.67
2018-11-06T07:05:14.839Z,100710.09
2018-11-06T07:07:43.861Z,100707.78
2018-11-06T07:10:14.182Z,100709.52
2018-11-06T07:12:43.544Z,100713.75
2018-11-06T07:15:13.661Z,100715.95
2018-11-06T07:17:42.380Z,100714.58
2018-11-06T07:20:13.924Z,100722.14
2018-11-06T07:22:42.343Z,100720.98
2018-11-06T07:25:11.709Z,100713.34
2018-11-06T07:27:41.113Z,100719.27
2018-11-06T07:30:11.749Z,100714.59
2018-11-06T07:32:40.735Z,100710.35
2018-11-06T07:35:09.815Z,100719.14
2018-11-06T07:37:38.938Z,100721.63
2018-11-06T07:40:09.467Z,100721.37
2018-11-06T07:42:37.948Z,100722.98
2018-11-06T07:45:08.985Z,100723.66
2018-11-06T07:47:37.459Z,100719.20
2018-11-06T07:50:06.736Z,100726.98
2018-11-06T07:52:35.457Z,100733.16
2018-11-06T07:55:03.972Z,100731.73
2018-11-06T07:57:32.323Z,100727.93
2018-11-06T08:00:00.729Z,100740.26
2018-11-06T08:02:29.134Z,100728.39
2018-11-06T08:04:58.332Z,100734.16
2018-11-06T08:07:26.689Z,100735.73
2018-11-06T08:09:55.098Z,100728.71
2018-11-06T08:12:23.441Z,100725.15
2018-11-06T08:14:51.862Z,100726.61
2018-11-06T08:17:20.203Z,100729.79
2018-11-06T08:19:48.549Z,100730.94
2018-11-06T08:22:17.060Z,100733.06
2018-11-06T08:24:45.445Z,100731.88
2018-11-06T08:27:13.817Z,100730.52
2018-11-06T08:29:42.230Z,100732.73
2018-11-06T08:32:10.866Z,100732.59
2018-11-06T08:34:38.956Z,100727.52
2018-11-06T08:37:07.391Z,100736.81
2018-11-06T08:39:35.662Z,100734.66
2018-11-06T08:42:04.263Z,100729.11
2018-11-06T08:44:32.611Z,100723.32
2018-11-06T08:47:01.127Z,100727.50
2018-11-06T08:49:29.476Z,100733.30
2018-11-06T08:51:57.817Z,100729.00
2018-11-06T08:54:26.182Z,100728.48
2018-11-06T08:56:54.505Z,100722.34
2018-11-06T08:59:22.863Z,100727.09
2018-11-06T09:01:51.229Z,100720.08
2018-11-06T09:04:19.590Z,100723.66
2018-11-06T09:06:47.972Z,100725.42
2018-11-06T09:09:16.313Z,100721.82
2018-11-06T09:11:44.645Z,100723.05
2018-11-06T09:14:12.985Z,100722.48
2018-11-06T09:16:41.327Z,100720.08
2018-11-06T09:19:09.685Z,100719.81
2018-11-06T09:21:38.024Z,100707.66
2018-11-06T09:24:06.689Z,100708.24
2018-11-06T09:26:35.022Z,100715.19
2018-11-06T09:29:03.372Z,100712.86
2018-11-06T09:31:31.713Z,100723.23
2018-11-06T09:34:00.220Z,100711.33
2018-11-06T09:36:29.104Z,100719.31
2018-11-06T09:38:57.718Z,100709.09
2018-11-06T09:41:26.079Z,100712.84
2018-11-06T09:43:54.552Z,100712.59
2018-11-06T09:46:23.336Z,100706.34
2018-11-06T09:48:51.718Z,100710.94
2018-11-06T09:51:20.075Z,100710.52
2018-11-06T09:53:48.488Z,100713.80
2018-11-06T09:56:16.833Z,100718.11
2018-11-06T09:58:45.171Z,100716.44
2018-11-06T10:01:13.658Z,100715.07
2018-11-06T10:03:42.033Z,100710.92
2018-11-06T10:06:10.478Z,100709.69
2018-11-06T10:08:38.802Z,100708.34
2018-11-06T10:11:07.444Z,100703.38
2018-11-06T10:13:36.006Z,100705.34
2018-11-06T10:16:04.353Z,100710.92
2018-11-06T10:18:32.704Z,100706.20
2018-11-06T10:21:01.163Z,100700.04
2018-11-06T10:23:29.490Z,100704.84
2018-11-06T10:25:57.830Z,100698.68
2018-11-06T10:28:26.219Z,100700.53
2018-11-06T10:30:54.782Z,100689.83
2018-11-06T10:33:23.551Z,100692.00
2018-11-06T10:35:51.889Z,100686.30
2018-11-06T10:38:20.334Z,100695.19
2018-11-06T10:40:48.711Z,100695.35
2018-11-06T10:43:17.089Z,100692.16
2018-11-06T10:45:45.480Z,100689.28
2018-11-06T10:48:13.864Z,100692.88
2018-11-06T10:50:42.772Z,100689.11
2018-11-06T10:53:11.158Z,100688.08
2018-11-06T10:55:39.968Z,100693.89
2018-11-06T10:58:08.377Z,100687.50
2018-11-06T11:00:42.066Z,100684.67
2018-11-06T11:03:15.708Z,100681.19
2018-11-06T11:05:44.057Z,100677.81
2018-11-06T11:08:12.387Z,100677.07
2018-11-06T11:10:40.730Z,100673.88
2018-11-06T11:13:09.076Z,100677.27
2018-11-06T11:15:37.418Z,100673.30
2018-11-06T11:18:05.771Z,100671.69
2018-11-06T11:20:34.112Z,100670.50
2018-11-06T11:23:02.458Z,100669.16
2018-11-06T11:25:30.847Z,100670.87
2018-11-06T11:27:59.180Z,100668.02
2018-11-06T11:30:27.597Z,100672.89
2018-11-06T11:32:55.938Z,100677.44
2018-11-06T11:35:24.297Z,100677.36
2018-11-06T11:37:52.671Z,100673.01
2018-11-06T11:40:21.009Z,100678.91
2018-11-06T11:42:49.393Z,100673.75
2018-11-06T11:45:17.769Z,100671.95
2018-11-06T11:47:46.117Z,100670.39
2018-11-06T11:50:15.406Z,100674.94
2018-11-06T11:52:43.760Z,100667.42
2018-11-06T11:55:12.264Z,100673.95
2018-11-06T11:57:41.059Z,100668.66
2018-11-06T12:00:13.311Z,100665.27
2018-11-06T12:02:41.611Z,100667.80
2018-11-06T12:05:11.414Z,100667.59
2018-11-06T12:07:39.839Z,100662.92
2018-11-06T12:10:09.916Z,100667.36
2018-11-06T12:12:38.488Z,100668.25
2018-11-06T12:15:09.168Z,100659.15
2018-11-06T12:17:37.555Z,100657.84
2018-11-06T12:20:06.116Z,100653.78
2018-11-06T12:22:34.520Z,100651.28
2018-11-06T12:25:03.129Z,100650.82
2018-11-06T12:27:31.345Z,100650.25
2018-11-06T12:29:59.722Z,100656.69
2018-11-06T12:32:28.109Z,100655.75
2018-11-06T12:34:56.517Z,100658.63
2018-11-06T12:37:24.895Z,100660.92
2018-11-06T12:39:53.236Z,100661.70
2018-11-06T12:42:21.824Z,100667.23
2018-11-06T12:44:50.245Z,100669.66
2018-11-06T12:47:18.575Z,100662.23
2018-11-06T12:49:46.994Z,100659.20
2018-11-06T12:52:15.374Z,100667.33
2018-11-06T12:54:44.132Z,100657.27
2018-11-06T12:57:12.503Z,100664.81
2018-11-06T12:59:40.858Z,100663.09
2018-11-06T13:02:09.252Z,100676.26
2018-11-06T13:04:37.615Z,100676.26
2018-11-06T13:07:05.995Z,100674.70
2018-11-06T13:09:34.367Z,100660.18
2018-11-06T13:12:02.720Z,100660.47
2018-11-06T13:14:31.085Z,100665.39
2018-11-06T13:16:59.459Z,100660.18
2018-11-06T13:19:27.889Z,100662.69
2018-11-06T13:21:56.229Z,100660.34
2018-11-06T13:24:24.617Z,100651.94
2018-11-06T13:26:53.099Z,100648.73
2018-11-06T13:29:22.014Z,100654.16
2018-11-06T13:31:50.359Z,100654.93
2018-11-06T13:34:18.704Z,100654.56
2018-11-06T13:36:47.064Z,100651.94
2018-11-06T13:39:15.430Z,100654.39
2018-11-06T13:41:44.258Z,100644.96
2018-11-06T13:44:13.006Z,100643.93
2018-11-06T13:46:41.241Z,100644.30
2018-11-06T13:49:09.594Z,100643.44
2018-11-06T13:51:37.968Z,100647.70
2018-11-06T13:54:06.527Z,100647.45
2018-11-06T13:56:34.868Z,100649.55
2018-11-06T13:59:03.231Z,100654.80
2018-11-06T14:01:31.634Z,100660.42
2018-11-06T14:04:00.015Z,100664.48
2018-11-06T14:06:28.392Z,100654.05
2018-11-06T14:08:56.759Z,100660.42
2018-11-06T14:11:25.136Z,100662.27
2018-11-06T14:13:53.527Z,100669.16
2018-11-06T14:16:21.921Z,100654.63
2018-11-06T14:18:50.300Z,100661.03
2018-11-06T14:21:18.690Z,100657.83
2018-11-06T14:23:46.995Z,100659.30
2018-11-06T14:26:15.574Z,100653.52
2018-11-06T14:28:43.905Z,100655.64
2018-11-06T14:31:12.244Z,100652.19
2018-11-06T14:33:40.699Z,100648.62
2018-11-06T14:36:09.045Z,100646.41
2018-11-06T14:38:37.397Z,100648.77
2018-11-06T14:41:05.877Z,100649.52
2018-11-06T14:43:34.236Z,100656.48
2018-11-06T14:46:02.584Z,100655.36
2018-11-06T14:48:31.033Z,100652.66
2018-11-06T14:50:59.316Z,100651.88
2018-11-06T14:53:27.692Z,100646.78
2018-11-06T14:55:56.318Z,100654.41
2018-11-06T14:58:24.676Z,100648.81
2018-11-06T15:00:53.040Z,100646.05
2018-11-06T15:03:21.400Z,100647.11
2018-11-06T15:05:49.749Z,100640.66
2018-11-06T15:08:18.105Z,100639.21
2018-11-06T15:10:46.478Z,100646.28
2018-11-06T15:13:14.866Z,100642.91
2018-11-06T15:15:43.213Z,100643.34
2018-11-06T15:18:11.570Z,100646.72
2018-11-06T15:20:39.992Z,100649.05
2018-11-06T15:23:08.322Z,100646.92
2018-11-06T15:25:36.758Z,100643.05
2018-11-06T15:28:05.142Z,100639.53
2018-11-06T15:30:33.556Z,100641.08
2018-11-06T15:33:01.903Z,100648.40
2018-11-06T15:35:30.246Z,100648.02
2018-11-06T15:37:58.632Z,100647.84
2018-11-06T15:40:27.002Z,100649.60
2018-11-06T15:42:55.375Z,100656.92
2018-11-06T15:45:23.702Z,100660.61
2018-11-06T15:47:52.133Z,100657.27
2018-11-06T15:50:21.132Z,100666.55
2018-11-06T15:52:50.393Z,100669.05
2018-11-06T15:55:18.750Z,100674.95
2018-11-06T15:57:47.099Z,100671.19
2018-11-06T16:00:17.577Z,100680.19
2018-11-06T16:02:46.368Z,100676.70
2018-11-06T16:05:14.756Z,100677.74
2018-11-06T16:07:43.174Z,100675.71
2018-11-06T16:10:14.140Z,100673.41
2018-11-06T16:12:43.154Z,100671.75
2018-11-06T16:15:11.633Z,100673.33
2018-11-06T16:17:39.945Z,100671.85
2018-11-06T16:20:10.450Z,100669.62
2018-11-06T16:22:38.824Z,100657.58
2018-11-06T16:25:08.940Z,100659.70
2018-11-06T16:27:37.376Z,100657.36
2018-11-06T16:30:07.116Z,100656.19
2018-11-06T16:32:35.464Z,100660.33
2018-11-06T16:35:03.869Z,100661.67
2018-11-06T16:37:32.228Z,100665.91
2018-11-06T16:40:00.580Z,100678.64
2018-11-06T16:42:28.944Z,100669.75
2018-11-06T16:44:57.312Z,100660.52
2018-11-06T16:47:25.668Z,100668.41
2018-11-06T16:49:54.030Z,100663.67
2018-11-06T16:52:22.365Z,100663.84
2018-11-06T16:54:50.802Z,100667.03
2018-11-06T16:57:19.219Z,100668.17
2018-11-06T16:59:47.600Z,100674.98
2018-11-06T17:02:15.976Z,100678.16
2018-11-06T17:04:44.329Z,100681.28
2018-11-06T17:07:12.713Z,100682.21
2018-11-06T17:09:41.053Z,100681.07
2018-11-06T17:12:09.431Z,100690.80
2018-11-06T17:14:37.778Z,100693.97
2018-11-06T17:17:06.633Z,100698.13
2018-11-06T17:19:35.010Z,100683.05
2018-11-06T17:22:03.385Z,100696.47
2018-11-06T17:24:31.716Z,100686.67
2018-11-06T17:27:00.175Z,100681.38
2018-11-06T17:29:28.642Z,100674.33
2018-11-06T17:31:57.037Z,100673.67
2018-11-06T17:34:25.420Z,100670.17
2018-11-06T17:36:53.793Z,100672.84
2018-11-06T17:39:22.203Z,100666.47
2018-11-06T17:41:50.538Z,100667.16
2018-11-06T17:44:18.902Z,100668.03
2018-11-06T17:46:47.254Z,100667.88
2018-11-06T17:49:15.631Z,100660.06
2018-11-06T17:51:43.979Z,100665.94
2018-11-06T17:54:12.353Z,100662.38
2018-11-06T17:56:40.929Z,100660.02
2018-11-06T17:59:09.309Z,100668.70
2018-11-06T18:01:37.659Z,100666.55
2018-11-06T18:04:06.934Z,100664.44
2018-11-06T18:06:35.175Z,100664.98
2018-11-06T18:09:03.964Z,100660.52
2018-11-06T18:11:32.419Z,100659.97
2018-11-06T18:14:00.790Z,100663.00
2018-11-06T18:16:29.132Z,100659.44
2018-11-06T18:18:57.512Z,100660.30
2018-11-06T18:21:25.861Z,100656.91
2018-11-06T18:23:54.780Z,100663.73
2018-11-06T18:26:23.128Z,100659.87
2018-11-06T18:28:51.640Z,100660.06
2018-11-06T18:31:19.983Z,100661.48
2018-11-06T18:33:48.366Z,100657.22
2018-11-06T18:36:16.722Z,100658.08
2018-11-06T18:38:45.088Z,100663.64
2018-11-06T18:41:13.594Z,100657.48
2018-11-06T18:43:41.945Z,100650.05
2018-11-06T18:46:10.364Z,100656.88
2018-11-06T18:48:38.745Z,100652.35
2018-11-06T18:51:07.108Z,100657.36
2018-11-06T18:53:35.920Z,100659.83
2018-11-06T18:56:04.560Z,100656.81
2018-11-06T18:58:32.962Z,100656.02
2018-11-06T19:01:01.291Z,100653.84
2018-11-06T19:03:29.672Z,100654.70
2018-11-06T19:05:58.014Z,100649.16
2018-11-06T19:08:26.389Z,100660.95
2018-11-06T19:10:55.698Z,100656.63
2018-11-06T19:13:24.065Z,100662.88
2018-11-06T19:15:52.415Z,100661.05
2018-11-06T19:18:20.745Z,100662.27
2018-11-06T19:20:49.105Z,100658.94
2018-11-06T19:23:18.105Z,100657.05
2018-11-06T19:25:46.514Z,100659.36
2018-11-06T19:28:14.856Z,100657.53
2018-11-06T19:30:43.199Z,100658.17
2018-11-06T19:33:11.550Z,100660.64
2018-11-06T19:35:39.888Z,100657.47
2018-11-06T19:38:08.361Z,100662.53
2018-11-06T19:40:36.810Z,100661.76
2018-11-06T19:43:05.300Z,100667.14
2018-11-06T19:45:33.690Z,100664.57
2018-11-06T19:48:02.129Z,100670.92
2018-11-06T19:50:30.477Z,100671.46
2018-11-06T19:52:59.294Z,100668.77
2018-11-06T19:55:27.704Z,100668.16
2018-11-06T19:57:56.063Z,100667.92
2018-11-06T20:00:24.647Z,100666.73
2018-11-06T20:02:53.832Z,100668.17
2018-11-06T20:05:22.283Z,100677.27
2018-11-06T20:07:51.492Z,100674.19
2018-11-06T20:10:21.300Z,100673.23
2018-11-06T20:12:50.696Z,100673.86
2018-11-06T20:15:19.112Z,100676.17
2018-11-06T20:17:47.720Z,100668.83
2018-11-06T20:20:17.630Z,100662.73
2018-11-06T20:22:46.841Z,100672.92
2018-11-06T20:25:15.199Z,100666.19
2018-11-06T20:27:44.047Z,100665.90
2018-11-06T20:30:14.681Z,100670.09
2018-11-06T20:32:43.056Z,100673.64
2018-11-06T20:35:12.153Z,100672.93
2018-11-06T20:37:40.615Z,100667.73
2018-11-06T20:40:11.061Z,100662.35
2018-11-06T20:42:39.896Z,100666.39
2018-11-06T20:45:09.456Z,100666.45
2018-11-06T20:47:37.908Z,100665.97
2018-11-06T20:50:09.016Z,100663.47
2018-11-06T20:52:37.535Z,100667.08
2018-11-06T20:55:06.723Z,100663.29
2018-11-06T20:57:35.092Z,100663.38
2018-11-06T21:00:03.694Z,100659.88
2018-11-06T21:02:32.013Z,100653.64
2018-11-06T21:05:00.349Z,100660.45
2018-11-06T21:07:28.826Z,100650.38
2018-11-06T21:09:57.179Z,100651.28
2018-11-06T21:12:25.520Z,100650.71
2018-11-06T21:14:54.178Z,100647.63
2018-11-06T21:17:22.551Z,100655.77
2018-11-06T21:19:51.002Z,100651.58
2018-11-06T21:29:19.801Z,100648.09
2018-11-06T21:31:48.166Z,100657.05
2018-11-06T21:34:16.523Z,100653.16
2018-11-06T21:36:44.861Z,100652.50
2018-11-06T21:39:13.268Z,100654.80
2018-11-06T21:41:41.590Z,100650.05
2018-11-06T21:44:09.938Z,100645.62
2018-11-06T21:46:38.279Z,100642.85
2018-11-06T21:49:06.628Z,100635.89
2018-11-06T21:51:34.979Z,100642.22
2018-11-06T21:54:03.505Z,100630.70
2018-11-06T21:56:31.872Z,100637.47
2018-11-06T21:59:00.287Z,100631.62
2018-11-06T22:01:29.099Z,100641.50
2018-11-06T22:03:57.463Z,100642.37
2018-11-06T22:06:26.094Z,100640.64
2018-11-06T22:08:54.450Z,100634.01
2018-11-06T22:11:22.795Z,100634.30
2018-11-06T22:13:51.131Z,100629.02
2018-11-06T22:16:19.488Z,100633.14
2018-11-06T22:18:47.822Z,100632.72
2018-11-06T22:21:16.204Z,100637.17
2018-11-06T22:23:44.557Z,100637.70
2018-11-06T22:26:12.902Z,100627.52
2018-11-06T22:28:41.236Z,100632.95
2018-11-06T22:31:09.583Z,100630.02
2018-11-06T22:33:37.940Z,100634.92
2018-11-06T22:36:06.313Z,100638.56
2018-11-06T22:38:34.672Z,100637.61
2018-11-06T22:41:03.075Z,100635.01
2018-11-06T22:43:31.410Z,100647.02
2018-11-06T22:45:59.770Z,100647.10
2018-11-06T22:48:28.137Z,100646.77
2018-11-06T22:50:56.483Z,100646.77
2018-11-06T22:53:24.930Z,100640.62
2018-11-06T22:55:53.202Z,100644.65
2018-11-06T22:58:21.542Z,100643.78
2018-11-06T23:00:55.262Z,100641.23
2018-11-06T23:03:23.628Z,100646.70
2018-11-06T23:05:51.991Z,100643.45
2018-11-06T23:08:24.997Z,100641.33
2018-11-06T23:10:53.584Z,100641.38
2018-11-06T23:13:22.023Z,100633.80
2018-11-06T23:15:50.358Z,100632.59
2018-11-06T23:18:18.856Z,100636.57
2018-11-06T23:20:47.233Z,100633.08
2018-11-06T23:23:15.896Z,100639.48
2018-11-06T23:25:44.241Z,100634.56
2018-11-06T23:28:12.645Z,100632.52
2018-11-06T23:30:40.999Z,100628.22
2018-11-06T23:33:09.365Z,100628.22
2018-11-06T23:35:37.735Z,100622.50
2018-11-06T23:38:06.241Z,100622.98
2018-11-06T23:40:34.589Z,100627.97
2018-11-06T23:43:02.947Z,100623.13
2018-11-06T23:45:31.312Z,100624.95
2018-11-06T23:47:59.642Z,100620.44
2018-11-06T23:50:28.001Z,100624.08
2018-11-06T23:52:56.687Z,100621.45
2018-11-06T23:55:25.054Z,100624.61
2018-11-06T23:57:53.398Z,100621.14
